createdAt,value
2022-12-18T00:01:25.727Z,80.88
2022-12-18T00:03:53.871Z,81.36
2022-12-18T00:06:21.354Z,81.74
2022-12-18T00:08:47.951Z,81.65
2022-12-18T00:11:22.311Z,82.04
2022-12-18T00:13:49.432Z,82.13
2022-12-18T00:16:21.659Z,82.43
2022-12-18T00:18:53.100Z,82.32
2022-12-18T00:21:20.810Z,82.49
2022-12-18T00:23:49.123Z,82.60
2022-12-18T00:26:19.304Z,82.71
2022-12-18T00:28:46.864Z,82.47
2022-12-18T00:31:17.055Z,82.53
2022-12-18T00:33:44.340Z,82.36
2022-12-18T00:36:13.517Z,82.41
2022-12-18T00:38:40.204Z,81.93
2022-12-18T00:41:08.199Z,81.92
2022-12-18T00:43:37.563Z,81.82
2022-12-18T00:46:04.974Z,81.44
2022-12-18T00:48:32.238Z,81.19
2022-12-18T00:50:58.776Z,81.58
2022-12-18T00:53:25.347Z,81.61
2022-12-18T00:55:51.810Z,81.25
2022-12-18T00:58:18.351Z,81.56
2022-12-18T01:00:44.936Z,81.63
2022-12-18T01:03:14.986Z,81.87
2022-12-18T01:05:43.935Z,81.82
2022-12-18T01:08:11.657Z,82.00
2022-12-18T01:10:41.823Z,82.31
2022-12-18T01:13:08.303Z,82.47
2022-12-18T01:15:34.820Z,82.47
2022-12-18T01:18:01.296Z,82.27
2022-12-18T01:20:27.746Z,82.29
2022-12-18T01:22:54.202Z,82.15
2022-12-18T01:25:20.620Z,82.52
2022-12-18T01:27:47.053Z,82.25
2022-12-18T01:30:13.645Z,82.08
2022-12-18T01:32:40.218Z,82.18
2022-12-18T01:35:07.763Z,81.74
2022-12-18T01:37:34.376Z,81.85
2022-12-18T01:40:00.909Z,81.85
2022-12-18T01:42:27.410Z,81.24
2022-12-18T01:45:12.154Z,81.05
2022-12-18T01:47:53.350Z,81.44
2022-12-18T01:50:31.790Z,81.18
2022-12-18T01:53:07.117Z,81.05
2022-12-18T01:55:56.575Z,80.69
2022-12-18T01:58:46.414Z,80.52
2022-12-18T02:01:13.109Z,80.79
2022-12-18T02:03:42.682Z,80.77
2022-12-18T02:06:09.261Z,80.54
2022-12-18T02:08:52.067Z,80.47
2022-12-18T02:11:40.581Z,80.70
2022-12-18T02:14:35.774Z,80.31
2022-12-18T02:17:24.189Z,80.08
2022-12-18T02:20:20.871Z,80.25
2022-12-18T02:23:15.181Z,80.18
2022-12-18T02:26:03.208Z,80.37
2022-12-18T02:28:34.340Z,79.91
2022-12-18T02:31:07.432Z,80.25
2022-12-18T02:33:37.102Z,80.09
2022-12-18T02:36:05.323Z,80.18
2022-12-18T02:38:34.741Z,80.13
2022-12-18T02:41:09.185Z,80.32
2022-12-18T02:43:36.770Z,80.16
2022-12-18T02:46:29.682Z,80.18
2022-12-18T02:49:05.752Z,80.27
2022-12-18T02:51:44.694Z,80.43
2022-12-18T02:54:32.878Z,80.56
2022-12-18T02:57:10.898Z,80.36
2022-12-18T02:59:50.370Z,80.26
2022-12-18T03:02:27.342Z,80.29
2022-12-18T03:05:05.469Z,80.57
2022-12-18T03:07:40.137Z,80.62
2022-12-18T03:10:15.144Z,80.29
2022-12-18T03:12:52.267Z,80.56
2022-12-18T03:15:50.506Z,79.96
2022-12-18T03:18:25.918Z,80.19
2022-12-18T03:20:56.812Z,80.15
2022-12-18T03:23:26.927Z,80.23
2022-12-18T03:26:05.817Z,79.69
2022-12-18T03:28:43.157Z,79.80
2022-12-18T03:31:14.797Z,79.83
2022-12-18T03:33:53.337Z,79.68
2022-12-18T03:36:24.657Z,79.45
2022-12-18T03:38:52.193Z,79.20
2022-12-18T03:41:30.149Z,79.20
2022-12-18T03:44:41.178Z,79.25
2022-12-18T03:47:26.551Z,78.88
2022-12-18T03:50:12.513Z,79.02
2022-12-18T03:52:49.218Z,79.08
2022-12-18T03:55:17.931Z,78.86
2022-12-18T03:57:49.143Z,79.18
2022-12-18T04:00:19.418Z,79.20
2022-12-18T04:02:57.767Z,79.44
2022-12-18T04:05:35.420Z,79.70
2022-12-18T04:08:02.877Z,79.51
2022-12-18T04:10:31.070Z,79.67
2022-12-18T04:12:59.559Z,79.98
2022-12-18T04:15:26.677Z,79.98
2022-12-18T04:17:53.215Z,79.80
2022-12-18T04:20:23.240Z,79.77
2022-12-18T04:22:50.235Z,79.76
2022-12-18T04:25:19.307Z,79.65
2022-12-18T04:28:06.079Z,79.99
2022-12-18T04:30:33.825Z,80.35
2022-12-18T04:33:00.473Z,80.11
2022-12-18T04:35:28.071Z,80.09
2022-12-18T04:37:54.903Z,79.86
2022-12-18T04:40:21.415Z,79.75
2022-12-18T04:42:48.890Z,80.23
2022-12-18T04:45:15.498Z,79.90
2022-12-18T04:47:41.999Z,79.85
2022-12-18T04:50:08.664Z,80.28
2022-12-18T04:52:35.110Z,80.13
2022-12-18T04:55:01.582Z,80.04
2022-12-18T04:57:28.090Z,80.26
2022-12-18T04:59:54.538Z,80.13
2022-12-18T05:02:21.183Z,79.98
2022-12-18T05:04:47.638Z,80.23
2022-12-18T05:07:14.053Z,79.71
2022-12-18T05:09:40.534Z,79.99
2022-12-18T05:12:08.217Z,79.77
2022-12-18T05:14:34.640Z,79.59
2022-12-18T05:17:01.403Z,79.73
2022-12-18T05:19:27.934Z,79.86
2022-12-18T05:21:54.343Z,79.92
2022-12-18T05:24:20.853Z,79.70
2022-12-18T05:26:47.325Z,79.67
2022-12-18T05:29:13.994Z,79.93
2022-12-18T05:31:41.227Z,79.81
2022-12-18T05:34:09.518Z,79.78
2022-12-18T05:36:37.119Z,79.80
2022-12-18T05:39:03.858Z,79.99
2022-12-18T05:41:30.878Z,79.76
2022-12-18T05:43:57.442Z,79.88
2022-12-18T05:46:25.234Z,79.94
2022-12-18T05:48:52.020Z,79.90
2022-12-18T05:51:21.224Z,79.99
2022-12-18T05:53:47.878Z,79.80
2022-12-18T05:56:17.290Z,79.94
2022-12-18T05:58:44.186Z,79.95
2022-12-18T06:01:19.675Z,80.21
2022-12-18T06:03:47.025Z,79.67
2022-12-18T06:06:19.853Z,79.89
2022-12-18T06:08:47.089Z,80.18
2022-12-18T06:11:16.679Z,79.82
2022-12-18T06:13:43.195Z,79.99
2022-12-18T06:16:09.695Z,79.97
2022-12-18T06:18:39.433Z,80.03
2022-12-18T06:21:06.214Z,79.96
2022-12-18T06:23:32.647Z,80.08
2022-12-18T06:25:59.116Z,79.95
2022-12-18T06:28:25.539Z,80.04
2022-12-18T06:30:52.023Z,79.94
2022-12-18T06:33:18.664Z,80.08
2022-12-18T06:35:45.083Z,80.04
2022-12-18T06:38:11.618Z,79.99
2022-12-18T06:40:40.223Z,79.78
2022-12-18T06:43:07.190Z,79.56
2022-12-18T06:45:33.880Z,79.87
2022-12-18T06:48:00.380Z,79.95
2022-12-18T06:50:27.025Z,79.92
2022-12-18T06:52:53.521Z,79.74
2022-12-18T06:55:19.988Z,79.58
2022-12-18T06:57:46.459Z,79.53
2022-12-18T07:00:13.497Z,79.55
2022-12-18T07:02:40.400Z,79.17
2022-12-18T07:05:10.688Z,79.24
2022-12-18T07:07:37.868Z,79.11
2022-12-18T07:10:05.010Z,78.89
2022-12-18T07:12:31.554Z,79.28
2022-12-18T07:14:58.050Z,79.09
2022-12-18T07:17:24.506Z,79.15
2022-12-18T07:19:50.934Z,78.99
2022-12-18T07:22:17.353Z,79.25
2022-12-18T07:24:43.823Z,78.88
2022-12-18T07:27:10.277Z,78.97
2022-12-18T07:29:36.866Z,79.02
2022-12-18T07:32:04.621Z,78.97
2022-12-18T07:34:31.091Z,78.96
2022-12-18T07:36:57.526Z,78.87
2022-12-18T07:39:23.955Z,78.83
2022-12-18T07:42:10.603Z,78.88
2022-12-18T07:44:40.069Z,78.72
2022-12-18T07:47:10.501Z,78.80
2022-12-18T07:49:38.678Z,79.01
2022-12-18T07:52:05.300Z,78.53
2022-12-18T07:54:31.724Z,78.36
2022-12-18T07:56:58.465Z,78.32
2022-12-18T07:59:25.218Z,78.30
2022-12-18T08:01:51.719Z,77.86
2022-12-18T08:04:18.387Z,78.08
2022-12-18T08:06:47.723Z,77.96
2022-12-18T08:09:14.971Z,77.84
2022-12-18T08:11:41.388Z,77.53
2022-12-18T08:14:07.933Z,77.45
2022-12-18T08:16:34.440Z,76.91
2022-12-18T08:19:01.173Z,77.00
2022-12-18T08:21:30.284Z,77.45
2022-12-18T08:23:59.150Z,77.09
2022-12-18T08:26:27.985Z,77.06
2022-12-18T08:28:56.767Z,76.73
2022-12-18T08:31:23.863Z,76.36
2022-12-18T08:33:53.135Z,76.88
2022-12-18T08:36:20.973Z,76.50
2022-12-18T08:38:47.977Z,76.52
2022-12-18T08:41:16.933Z,76.11
2022-12-18T08:44:02.158Z,76.03
2022-12-18T08:46:33.867Z,75.60
2022-12-18T08:49:00.421Z,76.05
2022-12-18T08:51:27.418Z,76.12
2022-12-18T08:53:53.838Z,76.17
2022-12-18T08:56:20.253Z,75.78
2022-12-18T08:58:46.883Z,75.34
2022-12-18T09:01:14.449Z,75.44
2022-12-18T09:03:41.732Z,75.16
2022-12-18T09:06:08.513Z,75.66
2022-12-18T09:08:34.947Z,75.36
2022-12-18T09:11:01.377Z,75.82
2022-12-18T09:13:27.967Z,75.02
2022-12-18T09:15:55.395Z,75.09
2022-12-18T09:18:24.180Z,75.59
2022-12-18T09:20:52.692Z,75.35
2022-12-18T09:23:19.469Z,75.02
2022-12-18T09:25:45.878Z,75.86
2022-12-18T09:28:15.424Z,75.43
2022-12-18T09:30:44.320Z,75.05
2022-12-18T09:33:11.124Z,75.34
2022-12-18T09:35:39.931Z,74.49
2022-12-18T09:38:07.383Z,74.92
2022-12-18T09:40:37.261Z,74.59
2022-12-18T09:43:07.400Z,75.03
2022-12-18T09:45:45.596Z,74.77
2022-12-18T09:48:20.864Z,74.60
2022-12-18T09:50:48.044Z,74.60
2022-12-18T09:53:21.475Z,75.20
2022-12-18T09:55:49.404Z,74.91
2022-12-18T09:58:27.753Z,74.37
2022-12-18T10:00:55.622Z,74.48
2022-12-18T10:03:22.732Z,74.43
2022-12-18T10:06:14.562Z,74.05
2022-12-18T10:08:56.357Z,73.75
2022-12-18T10:11:39.996Z,73.84
2022-12-18T10:14:25.137Z,73.49
2022-12-18T10:17:04.546Z,73.36
2022-12-18T10:19:57.249Z,73.11
2022-12-18T10:22:48.323Z,72.87
2022-12-18T10:25:21.001Z,73.04
2022-12-18T10:27:48.531Z,72.41
2022-12-18T10:30:21.984Z,72.37
2022-12-18T10:32:48.465Z,72.70
2022-12-18T10:35:26.207Z,72.48
2022-12-18T10:38:17.540Z,71.73
2022-12-18T10:41:02.191Z,71.36
2022-12-18T10:43:37.306Z,71.58
2022-12-18T10:46:09.946Z,71.14
2022-12-18T10:48:48.462Z,71.20
2022-12-18T10:51:41.360Z,70.70
2022-12-18T10:54:16.637Z,71.10
2022-12-18T10:56:43.737Z,71.04
2022-12-18T10:59:14.409Z,70.66
2022-12-18T11:01:57.144Z,70.51
2022-12-18T11:04:31.913Z,71.25
2022-12-18T11:06:59.875Z,70.73
2022-12-18T11:09:33.148Z,70.33
2022-12-18T11:12:02.656Z,69.58
2022-12-18T11:14:33.164Z,70.04
2022-12-18T11:19:57.786Z,69.36
2022-12-18T11:22:33.114Z,69.43
2022-12-18T11:25:32.705Z,68.97
2022-12-18T11:28:00.981Z,68.65
2022-12-18T11:30:28.415Z,68.31
2022-12-18T11:33:03.936Z,68.25
2022-12-18T11:35:45.917Z,68.30
2022-12-18T11:38:21.408Z,68.21
2022-12-18T11:40:55.116Z,68.11
2022-12-18T11:43:29.458Z,67.46
2022-12-18T11:46:03.596Z,68.13
2022-12-18T11:48:46.262Z,67.45
2022-12-18T11:51:27.146Z,67.24
2022-12-18T11:53:53.819Z,67.63
2022-12-18T11:56:47.061Z,66.64
2022-12-18T11:59:37.684Z,66.27
2022-12-18T12:02:16.534Z,66.64
2022-12-18T12:05:18.504Z,65.86
2022-12-18T12:07:56.890Z,66.16
2022-12-18T12:11:08.335Z,65.86
2022-12-18T12:13:45.047Z,65.70
2022-12-18T12:16:19.441Z,65.28
2022-12-18T12:18:53.030Z,65.37
2022-12-18T12:21:28.743Z,64.80
2022-12-18T12:24:11.380Z,64.97
2022-12-18T12:26:57.675Z,65.22
2022-12-18T12:30:05.492Z,65.10
2022-12-18T12:32:48.603Z,65.08
2022-12-18T12:35:24.190Z,65.32
2022-12-18T12:38:05.619Z,66.08
2022-12-18T12:40:58.559Z,66.07
2022-12-18T12:43:50.670Z,65.44
2022-12-18T12:46:22.211Z,65.90
2022-12-18T12:49:00.598Z,65.73
2022-12-18T12:51:35.530Z,65.88
2022-12-18T12:54:06.372Z,66.35
2022-12-18T12:56:58.766Z,65.91
2022-12-18T12:59:59.370Z,66.29
2022-12-18T13:02:55.020Z,66.29
2022-12-18T13:05:40.017Z,66.70
2022-12-18T13:08:22.679Z,66.22
2022-12-18T13:11:10.805Z,66.44
2022-12-18T13:13:57.469Z,66.32
2022-12-18T13:16:26.318Z,65.67
2022-12-18T13:18:55.299Z,65.85
2022-12-18T13:21:28.005Z,66.05
2022-12-18T13:23:56.604Z,65.78
2022-12-18T13:26:28.738Z,65.51
2022-12-18T13:28:57.217Z,65.70
2022-12-18T13:31:41.700Z,66.39
2022-12-18T13:37:40.650Z,66.49
2022-12-18T13:40:45.716Z,66.95
2022-12-18T13:43:21.806Z,66.92
2022-12-18T13:45:55.302Z,66.26
2022-12-18T13:48:25.291Z,66.97
2022-12-18T13:51:03.060Z,67.29
2022-12-18T13:53:50.747Z,67.05
2022-12-18T13:56:19.232Z,66.75
2022-12-18T13:59:03.708Z,66.92
2022-12-18T14:01:30.301Z,67.26
2022-12-18T14:04:36.459Z,67.16
2022-12-18T14:07:06.602Z,67.36
2022-12-18T14:09:40.692Z,67.49
2022-12-18T14:12:31.793Z,67.71
2022-12-18T14:15:01.091Z,68.51
2022-12-18T14:17:27.810Z,68.47
2022-12-18T14:19:54.991Z,68.39
2022-12-18T14:22:30.294Z,68.96
2022-12-18T14:25:20.692Z,68.93
2022-12-18T14:28:12.845Z,69.16
2022-12-18T14:30:41.981Z,69.13
2022-12-18T14:33:11.290Z,69.69
2022-12-18T14:35:52.688Z,69.35
2022-12-18T14:38:52.565Z,69.61
2022-12-18T14:41:20.551Z,69.92
2022-12-18T14:43:49.300Z,69.94
2022-12-18T14:46:31.011Z,70.35
2022-12-18T14:48:58.466Z,70.37
2022-12-18T14:51:30.817Z,70.88
2022-12-18T14:53:59.206Z,70.65
2022-12-18T14:56:29.065Z,70.87
2022-12-18T14:59:04.447Z,70.76
2022-12-18T15:01:35.386Z,71.07
2022-12-18T15:04:03.207Z,71.10
2022-12-18T15:06:38.394Z,71.58
2022-12-18T15:09:22.850Z,71.38
2022-12-18T15:11:49.675Z,71.82
2022-12-18T15:14:31.351Z,72.08
2022-12-18T15:16:59.906Z,72.27
2022-12-18T15:19:38.225Z,72.14
2022-12-18T15:22:06.782Z,72.17
2022-12-18T15:24:33.902Z,73.04
2022-12-18T15:27:01.394Z,72.90
2022-12-18T15:29:28.384Z,73.18
2022-12-18T15:32:06.721Z,73.16
2022-12-18T15:34:35.044Z,73.41
2022-12-18T15:37:01.595Z,73.09
2022-12-18T15:39:28.042Z,73.26
2022-12-18T15:42:13.386Z,73.75
2022-12-18T15:44:39.980Z,73.44
2022-12-18T15:47:12.608Z,73.51
2022-12-18T15:49:39.089Z,73.62
2022-12-18T15:52:06.719Z,73.86
2022-12-18T15:55:08.588Z,73.94
2022-12-18T15:57:35.012Z,73.97
2022-12-18T16:00:01.637Z,73.96
2022-12-18T16:02:29.505Z,73.99
2022-12-18T16:04:56.258Z,73.81
2022-12-18T16:07:24.979Z,74.08
2022-12-18T16:09:52.695Z,74.44
2022-12-18T16:12:22.889Z,74.58
2022-12-18T16:14:49.391Z,74.38
2022-12-18T16:17:16.757Z,74.50
2022-12-18T16:19:45.210Z,74.53
2022-12-18T16:22:22.978Z,74.44
2022-12-18T16:24:51.002Z,74.81
2022-12-18T16:27:17.799Z,74.93
2022-12-18T16:29:44.317Z,75.10
2022-12-18T16:32:15.148Z,74.95
2022-12-18T16:34:42.924Z,74.81
2022-12-18T16:37:10.973Z,75.27
2022-12-18T16:39:38.412Z,75.38
2022-12-18T16:42:09.785Z,75.54
2022-12-18T16:44:36.830Z,75.32
2022-12-18T16:47:04.309Z,75.41
2022-12-18T16:49:31.344Z,75.51
2022-12-18T16:51:58.197Z,75.41
2022-12-18T16:54:25.035Z,75.53
2022-12-18T16:56:52.156Z,75.54
2022-12-18T16:59:19.244Z,75.31
2022-12-18T17:01:47.227Z,75.66
2022-12-18T17:04:14.453Z,75.37
2022-12-18T17:06:43.957Z,75.02
2022-12-18T17:09:16.215Z,75.28
2022-12-18T17:11:43.179Z,74.83
2022-12-18T17:14:14.291Z,75.30
2022-12-18T17:16:40.720Z,75.60
2022-12-18T17:19:12.106Z,75.29
2022-12-18T17:21:42.707Z,75.69
2022-12-18T17:24:10.237Z,75.22
2022-12-18T17:26:37.060Z,75.23
2022-12-18T17:29:03.594Z,74.69
2022-12-18T17:31:30.860Z,75.17
2022-12-18T17:33:58.806Z,75.02
2022-12-18T17:36:28.452Z,74.92
2022-12-18T17:38:59.209Z,75.20
2022-12-18T17:41:26.551Z,75.08
2022-12-18T17:44:01.344Z,75.07
2022-12-18T17:46:29.096Z,74.94
2022-12-18T17:48:55.858Z,75.45
2022-12-18T17:51:22.351Z,75.15
2022-12-18T17:53:49.407Z,75.04
2022-12-18T17:56:17.798Z,74.75
2022-12-18T17:58:45.354Z,75.05
2022-12-18T18:01:14.807Z,74.52
2022-12-18T18:03:43.567Z,74.97
2022-12-18T18:06:10.562Z,74.00
2022-12-18T18:08:37.612Z,74.62
2022-12-18T18:11:24.887Z,74.22
2022-12-18T18:14:04.509Z,74.37
2022-12-18T18:16:34.242Z,74.68
2022-12-18T18:19:03.612Z,74.72
2022-12-18T18:21:31.053Z,74.72
2022-12-18T18:24:04.603Z,74.61
2022-12-18T18:26:32.575Z,74.88
2022-12-18T18:29:00.584Z,74.60
2022-12-18T18:31:30.684Z,74.93
2022-12-18T18:33:57.557Z,74.97
2022-12-18T18:36:24.697Z,74.84
2022-12-18T18:38:51.693Z,75.17
2022-12-18T18:41:19.601Z,75.07
2022-12-18T18:43:46.354Z,74.67
2022-12-18T18:46:14.762Z,74.67
2022-12-18T18:48:42.995Z,74.73
2022-12-18T18:51:20.675Z,74.89
2022-12-18T18:53:50.159Z,75.48
2022-12-18T18:59:05.461Z,75.29
2022-12-18T19:01:32.317Z,75.61
2022-12-18T19:03:58.949Z,75.20
2022-12-18T19:06:27.708Z,75.68
2022-12-18T19:08:55.747Z,75.61
2022-12-18T19:11:42.299Z,75.74
2022-12-18T19:14:11.617Z,75.99
2022-12-18T19:16:38.367Z,75.78
2022-12-18T19:19:05.443Z,75.91
2022-12-18T19:21:33.397Z,75.73
2022-12-18T19:24:02.404Z,75.48
2022-12-18T19:26:29.076Z,75.29
2022-12-18T19:29:02.073Z,75.63
2022-12-18T19:31:34.780Z,75.78
2022-12-18T19:34:04.882Z,75.63
2022-12-18T19:36:36.875Z,76.13
2022-12-18T19:39:10.644Z,75.61
2022-12-18T19:41:37.365Z,75.99
2022-12-18T19:44:07.734Z,75.67
2022-12-18T19:46:35.800Z,75.67
2022-12-18T19:49:03.035Z,75.88
2022-12-18T19:51:31.400Z,75.62
2022-12-18T19:54:01.469Z,75.89
2022-12-18T19:56:32.281Z,75.10
2022-12-18T19:58:59.536Z,75.73
2022-12-18T20:01:27.716Z,75.63
2022-12-18T20:03:56.149Z,75.48
2022-12-18T20:06:33.753Z,75.91
2022-12-18T20:09:04.431Z,75.89
2022-12-18T20:11:32.701Z,76.23
2022-12-18T20:13:59.399Z,76.47
2022-12-18T20:16:26.017Z,76.12
2022-12-18T20:18:53.393Z,76.51
2022-12-18T20:21:20.646Z,76.43
2022-12-18T20:23:47.382Z,76.14
2022-12-18T20:26:14.037Z,76.05
2022-12-18T20:28:40.873Z,76.19
2022-12-18T20:31:10.492Z,76.04
2022-12-18T20:33:41.318Z,76.39
2022-12-18T20:36:12.382Z,76.19
2022-12-18T20:38:39.581Z,76.43
2022-12-18T20:41:12.693Z,76.38
2022-12-18T20:43:40.009Z,76.00
2022-12-18T20:46:10.572Z,76.12
2022-12-18T20:48:37.344Z,76.22
2022-12-18T20:51:07.129Z,76.17
2022-12-18T20:53:34.481Z,76.03
2022-12-18T20:56:05.730Z,76.51
2022-12-18T20:58:32.374Z,76.16
2022-12-18T21:01:07.117Z,76.09
2022-12-18T21:03:33.917Z,76.09
2022-12-18T21:06:00.525Z,75.99
2022-12-18T21:08:27.108Z,76.11
2022-12-18T21:10:54.289Z,75.72
2022-12-18T21:13:22.537Z,76.17
2022-12-18T21:15:49.181Z,76.10
2022-12-18T21:18:15.816Z,75.74
2022-12-18T21:20:42.654Z,75.91
2022-12-18T21:23:15.969Z,75.82
2022-12-18T21:25:43.714Z,75.98
2022-12-18T21:28:12.313Z,76.15
2022-12-18T21:30:38.956Z,76.50
2022-12-18T21:33:05.595Z,76.43
2022-12-18T21:35:32.533Z,75.96
2022-12-18T21:37:59.164Z,76.18
2022-12-18T21:40:25.725Z,76.24
2022-12-18T21:43:11.284Z,76.07
2022-12-18T21:45:44.490Z,76.46
2022-12-18T21:48:12.242Z,76.06
2022-12-18T21:50:38.879Z,76.36
2022-12-18T21:53:05.548Z,76.38
2022-12-18T21:55:32.252Z,76.17
2022-12-18T21:57:58.904Z,76.34
2022-12-18T22:00:25.567Z,76.43
2022-12-18T22:03:13.352Z,76.38
2022-12-18T22:05:38.788Z,76.45
2022-12-18T22:08:06.896Z,76.58
2022-12-18T22:10:34.089Z,76.22
2022-12-18T22:13:00.932Z,76.47
2022-12-18T22:15:27.726Z,76.32
2022-12-18T22:17:59.819Z,76.28
2022-12-18T22:20:26.927Z,76.30
2022-12-18T22:22:53.632Z,76.24
2022-12-18T22:25:20.274Z,76.21
2022-12-18T22:28:07.002Z,76.17
2022-12-18T22:30:33.815Z,76.23
2022-12-18T22:33:00.458Z,76.10
2022-12-18T22:35:27.080Z,75.91
2022-12-18T22:37:53.729Z,75.94
2022-12-18T22:40:25.929Z,76.34
2022-12-18T22:42:56.432Z,75.97
2022-12-18T22:45:24.722Z,75.81
2022-12-18T22:47:51.551Z,76.21
2022-12-18T22:50:18.480Z,76.20
2022-12-18T22:52:45.235Z,75.86
2022-12-18T22:55:12.063Z,76.34
2022-12-18T22:57:41.155Z,75.94
2022-12-18T23:00:14.880Z,76.01
2022-12-18T23:02:43.552Z,75.92
2022-12-18T23:05:10.317Z,76.30
2022-12-18T23:07:36.826Z,76.40
2022-12-18T23:10:03.783Z,76.73
2022-12-18T23:12:30.421Z,76.69
2022-12-18T23:14:57.187Z,76.71
2022-12-18T23:17:23.798Z,76.53
2022-12-18T23:19:50.347Z,76.58
2022-12-18T23:22:17.790Z,77.27
2022-12-18T23:24:44.430Z,77.10
2022-12-18T23:27:11.552Z,77.07
2022-12-18T23:29:39.865Z,76.80
2022-12-18T23:32:06.880Z,77.15
2022-12-18T23:34:33.366Z,77.54
2022-12-18T23:37:00.971Z,77.60
2022-12-18T23:39:28.923Z,77.85
2022-12-18T23:41:57.759Z,77.86
2022-12-18T23:44:24.508Z,77.47
2022-12-18T23:46:51.059Z,77.68
2022-12-18T23:49:17.548Z,77.96
2022-12-18T23:51:44.001Z,77.87
2022-12-18T23:54:10.837Z,77.61
2022-12-18T23:56:37.647Z,77.77
2022-12-18T23:59:04.113Z,77.87
